createdAt,value
2017-05-13T00:02:08.178Z,15.80
2017-05-13T00:04:35.797Z,15.80
2017-05-13T00:07:03.114Z,15.70
2017-05-13T00:09:30.611Z,15.70
2017-05-13T00:11:57.927Z,15.90
2017-05-13T00:14:25.445Z,15.80
2017-05-13T00:16:52.825Z,15.70
2017-05-13T00:19:20.204Z,15.60
2017-05-13T00:21:47.641Z,15.60
2017-05-13T00:24:15.011Z,15.60
2017-05-13T00:26:42.329Z,15.50
2017-05-13T00:29:10.527Z,15.50
2017-05-13T00:31:37.916Z,15.50
2017-05-13T00:34:05.254Z,15.40
2017-05-13T00:36:32.750Z,15.30
2017-05-13T00:39:00.074Z,15.30
2017-05-13T00:41:27.456Z,15.10
2017-05-13T00:43:54.814Z,15.10
2017-05-13T00:46:22.906Z,14.90
2017-05-13T00:48:51.482Z,15.00
2017-05-13T00:51:19.716Z,14.90
2017-05-13T00:53:47.074Z,15.00
2017-05-13T00:56:14.422Z,15.00
2017-05-13T00:58:42.116Z,15.10
2017-05-13T01:01:09.658Z,14.90
2017-05-13T01:03:37.003Z,15.00
2017-05-13T01:06:04.766Z,15.00
2017-05-13T01:08:32.096Z,15.00
2017-05-13T01:10:59.447Z,15.00
2017-05-13T01:13:26.877Z,15.10
2017-05-13T01:15:54.233Z,14.90
2017-05-13T01:18:21.650Z,14.80
2017-05-13T01:20:49.141Z,14.60
2017-05-13T01:23:16.476Z,14.60
2017-05-13T01:25:43.815Z,14.70
2017-05-13T01:28:11.177Z,14.70
2017-05-13T01:30:38.514Z,14.60
2017-05-13T01:33:06.248Z,14.80
2017-05-13T01:35:33.637Z,14.90
2017-05-13T01:38:01.157Z,14.80
2017-05-13T01:40:28.531Z,14.80
2017-05-13T01:42:55.883Z,14.70
2017-05-13T01:45:23.357Z,14.70
2017-05-13T01:47:50.716Z,14.70
2017-05-13T01:50:18.061Z,14.80
2017-05-13T01:52:45.438Z,14.80
2017-05-13T01:55:12.770Z,14.90
2017-05-13T01:57:40.113Z,15.10
2017-05-13T02:00:07.591Z,15.10
2017-05-13T02:02:35.041Z,15.20
2017-05-13T02:05:02.407Z,15.30
2017-05-13T02:07:29.731Z,15.40
2017-05-13T02:09:57.105Z,15.40
2017-05-13T02:12:24.613Z,15.40
2017-05-13T02:14:51.934Z,15.50
2017-05-13T02:17:19.455Z,15.50
2017-05-13T02:19:46.973Z,15.60
2017-05-13T02:22:14.526Z,15.50
2017-05-13T02:24:42.350Z,15.50
2017-05-13T02:27:09.697Z,15.50
2017-05-13T02:29:37.066Z,15.50
2017-05-13T02:32:04.418Z,15.50
2017-05-13T02:34:31.785Z,15.60
2017-05-13T02:36:59.109Z,15.60
2017-05-13T02:39:26.485Z,15.60
2017-05-13T02:41:53.806Z,15.60
2017-05-13T02:44:21.482Z,15.60
2017-05-13T02:46:48.893Z,15.70
2017-05-13T02:49:16.220Z,15.70
2017-05-13T02:51:44.258Z,15.70
2017-05-13T02:54:11.624Z,15.70
2017-05-13T02:56:39.467Z,15.70
2017-05-13T02:59:07.619Z,15.80
2017-05-13T03:01:34.997Z,15.70
2017-05-13T03:04:02.346Z,15.60
2017-05-13T03:06:29.728Z,15.60
2017-05-13T03:08:57.074Z,15.60
2017-05-13T03:11:24.467Z,15.60
2017-05-13T03:13:51.794Z,15.60
2017-05-13T03:16:19.115Z,15.70
2017-05-13T03:18:46.491Z,15.70
2017-05-13T03:21:13.816Z,15.70
2017-05-13T03:23:41.169Z,15.70
2017-05-13T03:26:09.178Z,15.70
2017-05-13T03:28:36.523Z,15.80
2017-05-13T03:31:03.881Z,15.90
2017-05-13T03:33:31.345Z,15.90
2017-05-13T03:35:58.683Z,15.90
2017-05-13T03:38:26.226Z,15.90
2017-05-13T03:40:53.603Z,15.90
2017-05-13T03:43:20.944Z,15.90
2017-05-13T03:45:48.271Z,15.90
2017-05-13T03:48:16.031Z,15.90
2017-05-13T03:50:43.362Z,15.90
2017-05-13T03:53:11.473Z,15.80
2017-05-13T03:55:39.486Z,15.80
2017-05-13T03:58:06.814Z,15.80
2017-05-13T04:00:34.142Z,15.90
2017-05-13T04:03:01.459Z,15.90
2017-05-13T04:05:28.812Z,15.90
2017-05-13T04:07:57.057Z,15.90
2017-05-13T04:10:24.404Z,16.00
2017-05-13T04:12:51.723Z,16.00
2017-05-13T04:15:19.067Z,16.00
2017-05-13T04:17:47.225Z,16.00
2017-05-13T04:20:15.117Z,16.00
2017-05-13T04:22:43.397Z,16.00
2017-05-13T04:25:11.470Z,16.00
2017-05-13T04:27:38.814Z,16.10
2017-05-13T04:30:06.948Z,16.00
2017-05-13T04:32:34.367Z,16.10
2017-05-13T04:35:01.715Z,16.00
2017-05-13T04:37:30.422Z,16.10
2017-05-13T04:39:57.781Z,16.10
2017-05-13T04:42:25.884Z,16.20
2017-05-13T04:44:53.431Z,16.20
2017-05-13T04:47:20.756Z,16.20
2017-05-13T04:49:48.080Z,16.30
2017-05-13T04:52:15.404Z,16.30
2017-05-13T04:54:43.520Z,16.30
2017-05-13T04:57:10.865Z,16.40
2017-05-13T04:59:38.214Z,16.40
2017-05-13T05:02:06.991Z,16.50
2017-05-13T05:04:34.348Z,16.40
2017-05-13T05:07:01.728Z,16.40
2017-05-13T05:09:29.212Z,16.30
2017-05-13T05:11:57.228Z,16.40
2017-05-13T05:14:24.597Z,16.50
2017-05-13T05:16:53.040Z,16.60
2017-05-13T05:19:20.382Z,16.70
2017-05-13T05:21:47.738Z,16.70
2017-05-13T05:24:15.113Z,16.80
2017-05-13T05:26:42.509Z,16.80
2017-05-13T05:29:09.957Z,16.90
2017-05-13T05:31:37.566Z,17.10
2017-05-13T05:34:11.835Z,17.10
2017-05-13T05:36:39.228Z,17.10
2017-05-13T05:39:06.555Z,17.10
2017-05-13T05:41:33.914Z,17.20
2017-05-13T05:44:01.298Z,17.30
2017-05-13T05:46:28.657Z,17.30
2017-05-13T05:48:56.007Z,17.30
2017-05-13T05:51:23.374Z,17.40
2017-05-13T05:53:50.709Z,17.60
2017-05-13T05:56:18.067Z,17.60
2017-05-13T05:58:45.398Z,17.60
2017-05-13T06:01:12.887Z,17.60
2017-05-13T06:03:40.217Z,17.60
2017-05-13T06:06:07.568Z,17.70
2017-05-13T06:08:35.051Z,17.70
2017-05-13T06:11:02.422Z,17.60
2017-05-13T06:13:29.750Z,17.70
2017-05-13T06:15:57.097Z,17.80
2017-05-13T06:18:24.489Z,17.80
2017-05-13T06:20:52.625Z,17.90
2017-05-13T06:23:19.946Z,18.10
2017-05-13T06:25:47.908Z,17.90
2017-05-13T06:28:15.308Z,18.00
2017-05-13T06:30:42.666Z,18.10
2017-05-13T06:33:15.266Z,18.20
2017-05-13T06:35:42.776Z,18.10
2017-05-13T06:38:10.252Z,18.00
2017-05-13T06:40:37.823Z,17.70
2017-05-13T06:43:05.354Z,17.40
2017-05-13T06:45:32.715Z,17.10
2017-05-13T06:48:00.369Z,16.70
2017-05-13T06:50:27.728Z,16.30
2017-05-13T06:52:55.194Z,15.90
2017-05-13T06:55:22.558Z,15.50
2017-05-13T06:57:49.884Z,15.30
2017-05-13T07:00:17.190Z,15.30
2017-05-13T07:02:45.301Z,15.20
2017-05-13T07:05:13.239Z,15.30
2017-05-13T07:07:40.609Z,15.30
2017-05-13T07:10:08.264Z,15.50
2017-05-13T07:12:36.057Z,15.80
2017-05-13T07:15:04.958Z,15.70
2017-05-13T07:17:32.407Z,15.70
2017-05-13T07:20:00.104Z,15.70
2017-05-13T07:22:28.254Z,15.50
2017-05-13T07:24:55.596Z,15.50
2017-05-13T07:27:23.015Z,15.50
2017-05-13T07:29:50.370Z,15.50
2017-05-13T07:32:17.719Z,15.50
2017-05-13T07:34:45.881Z,15.60
2017-05-13T07:37:13.997Z,15.60
2017-05-13T07:39:41.359Z,15.80
2017-05-13T07:42:08.931Z,15.80
2017-05-13T07:44:36.359Z,15.90
2017-05-13T07:47:03.954Z,16.00
2017-05-13T07:49:31.293Z,16.10
2017-05-13T07:51:58.684Z,16.20
2017-05-13T07:54:26.209Z,16.30
2017-05-13T07:56:53.546Z,16.60
2017-05-13T07:59:20.999Z,16.90
2017-05-13T08:01:48.688Z,17.20
2017-05-13T08:04:16.045Z,17.40
2017-05-13T08:06:43.395Z,17.40
2017-05-13T08:09:10.732Z,17.30
2017-05-13T08:11:38.140Z,17.50
2017-05-13T08:14:06.508Z,17.70
2017-05-13T08:16:34.125Z,17.90
2017-05-13T08:19:01.737Z,17.90
2017-05-13T08:21:35.390Z,18.10
2017-05-13T08:24:03.079Z,18.30
2017-05-13T08:26:32.373Z,18.60
2017-05-13T08:28:59.729Z,18.80
2017-05-13T08:31:27.409Z,19.00
2017-05-13T08:33:55.305Z,19.50
2017-05-13T08:36:24.572Z,20.00
2017-05-13T08:38:52.445Z,19.90
2017-05-13T08:41:20.601Z,19.80
2017-05-13T08:43:47.970Z,19.90
2017-05-13T08:46:15.461Z,20.10
2017-05-13T08:48:42.849Z,20.00
2017-05-13T08:51:10.400Z,20.60
2017-05-13T08:56:12.681Z,20.80
2017-05-13T08:58:40.039Z,21.10
2017-05-13T09:01:07.468Z,21.40
2017-05-13T09:03:34.805Z,21.60
2017-05-13T09:06:03.542Z,25.00
2017-05-13T09:08:30.860Z,27.00
2017-05-13T09:10:58.317Z,27.50
2017-05-13T09:13:25.693Z,29.70
2017-05-13T09:15:53.411Z,30.60
2017-05-13T09:18:21.518Z,32.90
2017-05-13T09:20:48.902Z,32.40
2017-05-13T09:23:16.334Z,32.20
2017-05-13T09:25:44.664Z,33.10
2017-05-13T09:28:12.173Z,34.50
2017-05-13T09:30:39.580Z,33.40
2017-05-13T09:33:07.071Z,33.90
2017-05-13T09:35:34.699Z,34.70
2017-05-13T09:38:02.049Z,35.40
2017-05-13T09:40:29.611Z,36.30
2017-05-13T09:42:57.004Z,38.20
2017-05-13T09:45:24.707Z,37.20
2017-05-13T09:47:52.037Z,37.30
2017-05-13T09:50:19.375Z,38.70
2017-05-13T09:52:46.782Z,39.10
2017-05-13T09:55:14.112Z,37.70
2017-05-13T09:57:41.474Z,36.20
2017-05-13T10:00:09.242Z,36.80
2017-05-13T10:02:37.158Z,32.80
2017-05-13T10:05:05.663Z,32.20
2017-05-13T10:07:33.605Z,30.70
2017-05-13T10:10:01.072Z,27.70
2017-05-13T10:12:28.470Z,25.40
2017-05-13T10:14:56.897Z,24.80
2017-05-13T10:17:25.101Z,27.50
2017-05-13T10:19:52.476Z,29.80
2017-05-13T10:22:20.155Z,27.40
2017-05-13T10:24:47.477Z,28.90
2017-05-13T10:27:14.833Z,33.90
2017-05-13T10:29:42.732Z,35.80
2017-05-13T10:32:10.855Z,33.70
2017-05-13T10:34:38.237Z,27.60
2017-05-13T10:37:06.196Z,25.30
2017-05-13T10:39:33.586Z,23.80
2017-05-13T10:42:01.729Z,22.50
2017-05-13T10:44:29.178Z,22.10
2017-05-13T10:46:56.558Z,22.10
2017-05-13T10:49:24.270Z,23.00
2017-05-13T10:51:51.784Z,22.90
2017-05-13T10:54:19.129Z,22.70
2017-05-13T10:56:46.503Z,22.70
2017-05-13T10:59:14.608Z,22.40
2017-05-13T11:01:42.368Z,22.10
2017-05-13T11:04:09.776Z,22.00
2017-05-13T11:06:37.265Z,21.90
2017-05-13T11:09:05.423Z,21.70
2017-05-13T11:11:33.516Z,21.70
2017-05-13T11:14:01.476Z,22.60
2017-05-13T11:16:29.615Z,23.10
2017-05-13T11:18:57.742Z,23.80
2017-05-13T11:21:25.131Z,24.80
2017-05-13T11:23:52.581Z,26.90
2017-05-13T11:26:20.131Z,27.70
2017-05-13T11:28:47.581Z,27.50
2017-05-13T11:31:15.764Z,29.70
2017-05-13T11:33:43.085Z,30.70
2017-05-13T11:36:10.758Z,30.40
2017-05-13T11:38:38.178Z,31.70
2017-05-13T11:41:05.898Z,32.70
2017-05-13T11:43:33.261Z,35.80
2017-05-13T11:46:00.662Z,34.90
2017-05-13T11:48:28.788Z,37.00
2017-05-13T11:50:56.136Z,37.10
2017-05-13T11:53:23.564Z,29.70
2017-05-13T11:55:51.251Z,27.60
2017-05-13T11:58:18.758Z,26.60
2017-05-13T12:00:46.123Z,29.60
2017-05-13T12:03:13.695Z,36.20
2017-05-13T12:05:41.210Z,38.60
2017-05-13T12:08:08.785Z,40.00
2017-05-13T12:10:36.890Z,38.50
2017-05-13T12:13:04.285Z,39.70
2017-05-13T12:15:31.637Z,40.50
2017-05-13T12:17:59.073Z,41.40
2017-05-13T12:20:26.644Z,42.00
2017-05-13T12:22:53.968Z,35.90
2017-05-13T12:25:21.352Z,36.50
2017-05-13T12:27:48.681Z,36.80
2017-05-13T12:30:16.076Z,37.30
2017-05-13T12:32:44.336Z,38.00
2017-05-13T12:35:11.860Z,38.00
2017-05-13T12:37:39.238Z,37.10
2017-05-13T12:40:06.574Z,37.80
2017-05-13T12:42:33.934Z,38.40
2017-05-13T12:45:01.313Z,38.90
2017-05-13T12:47:28.885Z,37.20
2017-05-13T12:49:58.455Z,36.40
2017-05-13T12:52:27.170Z,34.30
2017-05-13T12:54:54.817Z,30.30
2017-05-13T12:57:22.159Z,27.70
2017-05-13T12:59:49.522Z,27.10
2017-05-13T13:02:16.907Z,27.00
2017-05-13T13:04:44.757Z,26.90
2017-05-13T13:07:12.545Z,25.60
2017-05-13T13:09:40.003Z,25.50
2017-05-13T13:12:08.214Z,25.50
2017-05-13T13:14:35.617Z,25.80
2017-05-13T13:17:03.764Z,26.20
2017-05-13T13:19:31.702Z,26.20
2017-05-13T13:21:59.804Z,25.70
2017-05-13T13:24:32.471Z,25.60
2017-05-13T13:26:59.833Z,25.50
2017-05-13T13:29:27.502Z,25.30
2017-05-13T13:32:01.893Z,25.10
2017-05-13T13:34:29.343Z,24.70
2017-05-13T13:36:56.838Z,24.80
2017-05-13T13:39:24.241Z,24.40
2017-05-13T13:41:52.990Z,24.50
2017-05-13T13:44:20.738Z,24.40
2017-05-13T13:46:48.079Z,24.70
2017-05-13T13:49:15.618Z,24.90
2017-05-13T13:51:43.731Z,24.80
2017-05-13T13:54:11.203Z,24.80
2017-05-13T13:56:39.331Z,25.10
2017-05-13T13:59:07.066Z,25.40
2017-05-13T14:01:35.170Z,25.00
2017-05-13T14:04:02.571Z,25.10
2017-05-13T14:06:29.909Z,25.00
2017-05-13T14:08:57.672Z,24.80
2017-05-13T14:11:25.097Z,24.60
2017-05-13T14:13:52.489Z,24.70
2017-05-13T14:16:21.177Z,24.60
2017-05-13T14:18:48.588Z,24.20
2017-05-13T14:21:15.965Z,23.80
2017-05-13T14:23:43.335Z,23.40
2017-05-13T14:26:10.728Z,23.20
2017-05-13T14:28:38.913Z,23.10
2017-05-13T14:31:06.742Z,23.20
2017-05-13T14:33:34.171Z,23.20
2017-05-13T14:36:01.708Z,23.40
2017-05-13T14:38:29.388Z,23.30
2017-05-13T14:40:56.787Z,23.40
2017-05-13T14:43:26.717Z,23.30
2017-05-13T14:45:54.147Z,23.40
2017-05-13T14:48:22.391Z,23.30
2017-05-13T14:50:49.896Z,23.10
2017-05-13T14:53:18.166Z,22.90
2017-05-13T14:55:46.108Z,23.20
2017-05-13T14:58:57.567Z,23.30
2017-05-13T15:04:51.434Z,23.60
2017-05-13T15:07:19.794Z,23.60
2017-05-13T15:09:47.187Z,23.50
2017-05-13T15:12:15.212Z,23.50
2017-05-13T15:14:42.865Z,23.20
2017-05-13T15:17:10.230Z,23.00
2017-05-13T15:19:48.552Z,22.60
2017-05-13T15:22:16.827Z,22.70
2017-05-13T15:24:44.654Z,22.40
2017-05-13T15:27:12.105Z,22.50
2017-05-13T15:29:45.380Z,22.70
2017-05-13T15:32:12.771Z,23.00
2017-05-13T15:34:40.207Z,23.20
2017-05-13T15:37:07.590Z,23.00
2017-05-13T15:39:35.176Z,23.20
2017-05-13T15:42:03.501Z,23.00
2017-05-13T15:44:30.862Z,22.60
2017-05-13T15:46:58.196Z,22.40
2017-05-13T15:49:25.764Z,22.20
2017-05-13T15:51:53.430Z,22.10
2017-05-13T15:54:20.918Z,22.10
2017-05-13T15:56:48.315Z,22.20
2017-05-13T15:59:15.908Z,22.20
2017-05-13T16:01:43.807Z,22.30
2017-05-13T16:04:11.768Z,22.40
2017-05-13T16:06:39.501Z,22.50
2017-05-13T16:09:06.858Z,22.50
2017-05-13T16:11:34.518Z,22.50
2017-05-13T16:14:01.874Z,22.50
2017-05-13T16:16:29.424Z,22.50
2017-05-13T16:18:57.675Z,22.40
2017-05-13T16:21:25.063Z,22.50
2017-05-13T16:23:52.498Z,22.20
2017-05-13T16:26:20.298Z,21.90
2017-05-13T16:28:47.706Z,21.70
2017-05-13T16:31:15.099Z,21.60
2017-05-13T16:33:43.786Z,21.20
2017-05-13T16:36:11.387Z,21.00
2017-05-13T16:38:39.772Z,20.90
2017-05-13T16:41:07.857Z,20.80
2017-05-13T16:43:35.305Z,20.80
2017-05-13T16:46:02.752Z,20.70
2017-05-13T16:48:30.173Z,20.80
2017-05-13T16:51:05.057Z,20.70
2017-05-13T16:53:32.461Z,20.60
2017-05-13T16:55:59.867Z,20.40
2017-05-13T16:58:27.463Z,20.30
2017-05-13T17:00:55.021Z,20.30
2017-05-13T17:03:22.432Z,20.20
2017-05-13T17:05:49.852Z,20.10
2017-05-13T17:08:18.155Z,20.10
2017-05-13T17:10:46.573Z,20.10
2017-05-13T17:13:13.945Z,20.10
2017-05-13T17:15:41.640Z,20.00
2017-05-13T17:18:10.006Z,19.70
2017-05-13T17:20:38.141Z,19.50
2017-05-13T17:23:05.504Z,19.60
2017-05-13T17:25:32.893Z,19.40
2017-05-13T17:28:01.401Z,19.40
2017-05-13T17:30:29.214Z,19.20
2017-05-13T17:32:56.633Z,19.10
2017-05-13T17:35:23.972Z,19.20
2017-05-13T17:37:51.598Z,19.30
2017-05-13T17:40:19.739Z,19.20
2017-05-13T17:42:47.130Z,19.30
2017-05-13T17:45:14.775Z,19.10
2017-05-13T17:47:42.407Z,19.20
2017-05-13T17:50:09.875Z,19.30
2017-05-13T17:52:38.864Z,19.30
2017-05-13T17:55:06.263Z,19.00
2017-05-13T17:57:33.678Z,18.90
2017-05-13T18:00:01.455Z,18.80
2017-05-13T18:02:29.723Z,18.70
2017-05-13T18:04:58.551Z,18.70
2017-05-13T18:07:26.816Z,18.60
2017-05-13T18:09:55.011Z,18.50
2017-05-13T18:12:22.847Z,18.30
2017-05-13T18:14:50.235Z,18.20
2017-05-13T18:17:17.668Z,18.20
2017-05-13T18:19:45.100Z,18.20
2017-05-13T18:22:13.288Z,18.10
2017-05-13T18:24:40.885Z,18.10
2017-05-13T18:27:13.412Z,18.10
2017-05-13T18:29:52.227Z,18.10
2017-05-13T18:32:19.854Z,18.00
2017-05-13T18:34:48.909Z,18.00
2017-05-13T18:37:16.633Z,17.90
2017-05-13T18:39:43.994Z,17.90
2017-05-13T18:42:11.446Z,17.90
2017-05-13T18:44:38.842Z,17.80
2017-05-13T18:47:06.372Z,17.80
2017-05-13T18:49:33.830Z,17.80
2017-05-13T18:52:01.205Z,17.70
2017-05-13T18:54:35.636Z,17.70
2017-05-13T18:57:03.896Z,17.60
2017-05-13T18:59:32.206Z,17.50
2017-05-13T19:02:41.921Z,17.40
2017-05-13T19:05:09.936Z,17.50
2017-05-13T19:07:37.527Z,17.50
2017-05-13T19:10:05.675Z,17.60
2017-05-13T19:12:38.506Z,17.70
2017-05-13T19:15:06.349Z,17.60
2017-05-13T19:17:34.260Z,17.60
2017-05-13T19:20:01.680Z,17.60
2017-05-13T19:22:29.128Z,17.60
2017-05-13T19:24:56.543Z,17.60
2017-05-13T19:27:23.895Z,17.60
2017-05-13T19:29:53.199Z,17.60
2017-05-13T19:32:20.642Z,17.70
2017-05-13T19:34:48.954Z,17.70
2017-05-13T19:37:21.814Z,17.80
2017-05-13T19:39:49.348Z,17.90
2017-05-13T19:42:20.959Z,18.10
2017-05-13T19:44:48.934Z,18.20
2017-05-13T19:47:16.293Z,18.30
2017-05-13T19:49:49.135Z,18.40
2017-05-13T19:52:16.510Z,18.50
2017-05-13T19:54:44.137Z,18.50
2017-05-13T19:57:12.294Z,18.50
2017-05-13T19:59:39.640Z,18.60
2017-05-13T20:02:07.262Z,18.60
2017-05-13T20:04:34.754Z,18.60
2017-05-13T20:07:02.974Z,18.60
2017-05-13T20:13:06.925Z,18.40
2017-05-13T20:15:34.819Z,18.30
2017-05-13T20:18:03.802Z,18.40
2017-05-13T20:20:32.000Z,18.50
2017-05-13T20:23:06.053Z,18.30
2017-05-13T20:25:34.078Z,18.20
2017-05-13T20:28:02.728Z,18.20
2017-05-13T20:30:30.363Z,18.30
2017-05-13T20:32:57.965Z,18.20
2017-05-13T20:35:26.196Z,18.20
2017-05-13T20:37:55.282Z,18.10
2017-05-13T20:40:23.563Z,18.10
2017-05-13T20:42:52.418Z,18.10
2017-05-13T20:45:25.810Z,18.00
2017-05-13T20:47:53.657Z,18.10
2017-05-13T20:50:21.612Z,18.10
2017-05-13T20:56:26.075Z,18.20
2017-05-13T20:58:53.616Z,18.00
2017-05-13T21:01:21.040Z,17.90
2017-05-13T21:07:25.845Z,17.40
2017-05-13T21:09:53.385Z,17.40
2017-05-13T21:12:21.596Z,17.40
2017-05-13T21:14:49.869Z,17.50
2017-05-13T21:17:17.502Z,17.40
2017-05-13T21:19:46.238Z,17.30
2017-05-13T21:22:15.055Z,17.40
2017-05-13T21:24:42.598Z,17.60
2017-05-13T21:27:11.071Z,17.60
2017-05-13T21:29:39.249Z,17.70
2017-05-13T21:32:06.664Z,17.70
2017-05-13T21:34:40.101Z,17.60
2017-05-13T21:37:13.463Z,17.80
2017-05-13T21:39:41.694Z,17.90
2017-05-13T21:42:09.826Z,17.90
2017-05-13T21:44:38.399Z,18.00
2017-05-13T21:47:06.631Z,18.00
2017-05-13T21:49:34.192Z,17.90
2017-05-13T21:52:01.659Z,17.80
2017-05-13T21:54:30.226Z,17.90
2017-05-13T21:56:57.885Z,17.90
2017-05-13T21:59:25.651Z,17.90
2017-05-13T22:01:53.083Z,17.80
2017-05-13T22:04:20.497Z,17.70
2017-05-13T22:06:47.849Z,17.80
2017-05-13T22:09:20.570Z,17.80
2017-05-13T22:11:47.949Z,17.70
2017-05-13T22:14:15.637Z,17.70
2017-05-13T22:16:43.861Z,17.60
2017-05-13T22:19:11.621Z,17.70
2017-05-13T22:21:39.072Z,17.60
2017-05-13T22:24:06.604Z,17.50
2017-05-13T22:26:34.981Z,17.40
2017-05-13T22:29:03.018Z,17.30
2017-05-13T22:31:30.676Z,17.30
2017-05-13T22:33:58.031Z,17.20
2017-05-13T22:36:25.701Z,17.20
2017-05-13T22:38:53.102Z,17.20
2017-05-13T22:41:21.411Z,17.10
2017-05-13T22:43:48.864Z,17.10
2017-05-13T22:46:16.570Z,17.00
2017-05-13T22:48:43.958Z,17.10
2017-05-13T22:51:11.350Z,16.90
2017-05-13T22:53:38.911Z,16.90
2017-05-13T22:56:06.659Z,16.90
2017-05-13T22:58:34.024Z,16.80
2017-05-13T23:01:01.394Z,16.80
2017-05-13T23:03:28.758Z,16.70
2017-05-13T23:05:56.912Z,16.70
2017-05-13T23:08:24.296Z,16.60
2017-05-13T23:10:52.473Z,16.60
2017-05-13T23:13:20.727Z,16.70
2017-05-13T23:15:48.109Z,16.70
2017-05-13T23:18:15.508Z,16.70
2017-05-13T23:20:43.374Z,16.70
2017-05-13T23:23:10.835Z,16.80
2017-05-13T23:25:38.356Z,16.80
2017-05-13T23:28:05.774Z,16.90
2017-05-13T23:30:37.661Z,16.80
2017-05-13T23:33:05.772Z,16.70
2017-05-13T23:35:33.375Z,16.50
2017-05-13T23:38:00.741Z,16.30
2017-05-13T23:40:28.197Z,16.40
2017-05-13T23:45:30.533Z,16.50
2017-05-13T23:47:57.915Z,16.60
2017-05-13T23:50:25.282Z,16.70
2017-05-13T23:52:52.622Z,16.80
2017-05-13T23:55:19.971Z,16.70
2017-05-13T23:57:47.730Z,16.70
